Time;durP1;ratioP1;P1;durP2;ratioP2;P2;SDS_P1;SDS_P2;PMS_P1;PMS_P2;Temp;Humidity;BMP_temperature;BMP_pressure;BME280_temperature;BME280_humidity;BME280_pressure;Samples;Min_cycle;Max_cycle;Signal;HPM_P1;HPM_P2
2022/01/16 00:01:35;;;;;;;74.00;23.53;;;-0.70;99.90;;;;;;4440794;32;20184;-67
2022/01/16 00:04:06;;;;;;;81.30;25.00;;;-0.70;99.90;;;;;;4439948;32;20178;-67
2022/01/16 00:06:34;;;;;;;84.77;25.80;;;-0.60;99.90;;;;;;4440767;32;20169;-68
2022/01/16 00:09:02;;;;;;;82.33;26.27;;;-0.60;99.90;;;;;;4441139;32;20151;-68
2022/01/16 00:11:30;;;;;;;78.03;24.60;;;-0.60;99.90;;;;;;4440235;32;20208;-67
2022/01/16 00:13:57;;;;;;;82.00;24.07;;;-0.60;99.90;;;;;;4439536;32;20231;-67
2022/01/16 00:16:24;;;;;;;86.13;26.30;;;-0.60;99.90;;;;;;4439577;32;20166;-68
2022/01/16 00:18:54;;;;;;;75.17;24.03;;;-0.70;99.90;;;;;;4438608;32;20517;-67
2022/01/16 00:21:27;;;;;;;74.37;23.23;;;-0.70;99.90;;;;;;4439725;32;20208;-67
2022/01/16 00:23:54;;;;;;;79.30;23.70;;;-0.60;99.90;;;;;;4438940;32;20161;-67
2022/01/16 00:26:23;;;;;;;74.67;23.00;;;-0.60;99.90;;;;;;4438949;32;20404;-67
2022/01/16 00:28:50;;;;;;;69.27;24.27;;;-0.60;99.90;;;;;;4439884;32;20428;-67
2022/01/16 00:31:23;;;;;;;65.57;22.07;;;-0.60;99.90;;;;;;4438980;32;20231;-67
2022/01/16 03:50:07;;;;;;;51.97;17.23;;;-1.60;99.90;;;;;;4483176;31;20648;-67
2022/01/16 03:52:35;;;;;;;57.20;19.43;;;-1.60;99.90;;;;;;4453960;32;20245;-67
2022/01/16 03:55:03;;;;;;;52.57;18.27;;;-1.50;99.90;;;;;;4454128;32;20214;-67
2022/01/16 03:57:30;;;;;;;57.63;19.60;;;-1.60;99.90;;;;;;4453877;32;20524;-67
2022/01/16 03:59:57;;;;;;;53.83;19.03;;;-1.50;99.90;;;;;;4453350;32;20225;-67
2022/01/16 04:02:24;;;;;;;59.97;20.03;;;-1.50;99.90;;;;;;4453500;32;20190;-67
2022/01/16 04:04:51;;;;;;;55.77;19.53;;;-1.50;99.90;;;;;;4453354;32;20170;-67
2022/01/16 04:07:25;;;;;;;56.87;19.93;;;-1.50;99.90;;;;;;4454772;32;20181;-67
2022/01/16 04:09:53;;;;;;;56.33;20.30;;;-1.50;99.90;;;;;;4441218;32;20177;-66
2022/01/16 04:12:23;;;;;;;55.10;19.47;;;-1.50;99.90;;;;;;4468939;32;20161;-67
2022/01/16 04:17:20;;;;;;;63.03;20.80;;;-1.40;99.90;;;;;;4467515;32;20212;-66
2022/01/16 04:19:48;;;;;;;62.43;20.97;;;-1.40;99.90;;;;;;4453012;32;20236;-67
2022/01/16 04:22:16;;;;;;;56.03;19.90;;;-1.40;99.90;;;;;;4467920;32;20180;-67
2022/01/16 04:24:43;;;;;;;59.63;20.53;;;-1.40;99.90;;;;;;4453338;32;20208;-66
2022/01/16 04:27:12;;;;;;;61.40;21.90;;;-1.40;99.90;;;;;;4467528;32;20160;-67
2022/01/16 04:29:45;;;;;;;63.23;21.43;;;-1.50;99.90;;;;;;4454110;32;20178;-67
2022/01/16 04:32:13;;;;;;;60.83;21.83;;;-1.50;99.90;;;;;;4453166;32;20585;-66
2022/01/16 04:34:40;;;;;;;67.90;23.30;;;-1.40;99.90;;;;;;4453750;32;20185;-67
2022/01/16 04:37:07;;;;;;;61.53;22.13;;;-1.30;99.90;;;;;;4453344;32;20183;-67
2022/01/16 04:39:36;;;;;;;63.73;21.47;;;-1.40;99.90;;;;;;4453040;32;20169;-67
2022/01/16 04:44:59;;;;;;;65.80;21.60;;;-1.30;99.90;;;;;;4429334;32;20186;-67
2022/01/16 04:47:26;;;;;;;65.17;21.87;;;-1.30;99.90;;;;;;4452827;32;20446;-67
2022/01/16 04:49:53;;;;;;;70.83;22.83;;;-1.30;99.90;;;;;;4467627;32;20166;-67
2022/01/16 04:52:20;;;;;;;67.13;23.27;;;-1.30;99.90;;;;;;4452880;32;20204;-67
2022/01/16 04:54:47;;;;;;;62.10;23.33;;;-1.20;99.90;;;;;;4467934;32;20484;-67
2022/01/16 04:57:16;;;;;;;63.17;22.47;;;-1.10;99.90;;;;;;4454296;32;20178;-67
2022/01/16 04:59:43;;;;;;;65.23;22.13;;;-1.10;99.90;;;;;;4450192;32;20193;-67
2022/01/16 05:02:10;;;;;;;62.63;21.93;;;-1.20;99.90;;;;;;4442390;32;20226;-67
2022/01/16 05:04:38;;;;;;;63.63;22.63;;;-1.20;99.90;;;;;;4442776;32;20181;-66
2022/01/16 05:07:05;;;;;;;59.90;21.87;;;-1.30;99.90;;;;;;4443412;32;20189;-67
2022/01/16 05:09:32;;;;;;;60.33;21.97;;;-1.20;99.90;;;;;;4442786;32;20174;-66
2022/01/16 05:12:02;;;;;;;65.33;22.90;;;-1.30;99.90;;;;;;4443609;32;20228;-67
2022/01/16 05:17:15;;;;;;;62.77;21.30;;;-1.50;99.90;;;;;;4457744;32;20214;-66
2022/01/16 05:19:44;;;;;;;59.30;21.60;;;-1.50;99.90;;;;;;4442359;32;20193;-67
2022/01/16 05:22:11;;;;;;;62.63;20.97;;;-1.50;99.90;;;;;;4441966;32;20193;-67
2022/01/16 05:24:38;;;;;;;57.27;20.37;;;-1.50;99.90;;;;;;4442743;32;20210;-66
2022/01/16 05:27:06;;;;;;;62.90;21.83;;;-1.60;99.90;;;;;;4457813;32;20165;-66
2022/01/16 05:29:35;;;;;;;64.27;22.17;;;-1.50;99.90;;;;;;4443730;32;20182;-66
2022/01/16 05:32:03;;;;;;;65.37;21.33;;;-1.50;99.90;;;;;;4442602;32;20223;-68
2022/01/16 05:34:30;;;;;;;63.03;21.50;;;-1.60;99.90;;;;;;4442205;32;20170;-67
2022/01/16 05:36:57;;;;;;;64.20;22.33;;;-1.60;99.90;;;;;;4441881;32;20174;-66
2022/01/16 05:39:24;;;;;;;58.23;20.83;;;-1.60;99.90;;;;;;4442268;32;20204;-66
2022/01/16 05:41:51;;;;;;;57.13;21.40;;;-1.60;99.90;;;;;;4441475;32;20508;-67
2022/01/16 05:44:19;;;;;;;66.53;22.07;;;-1.60;99.90;;;;;;4441935;32;20464;-66
2022/01/16 05:46:46;;;;;;;64.00;22.30;;;-1.50;99.90;;;;;;4456503;32;20161;-67
2022/01/16 05:49:13;;;;;;;67.63;23.80;;;-1.50;99.90;;;;;;4441761;32;20631;-67
2022/01/16 05:51:40;;;;;;;59.53;22.20;;;-1.50;99.90;;;;;;4442472;32;20182;-66
2022/01/16 05:54:07;;;;;;;62.20;22.63;;;-1.50;99.90;;;;;;4441588;32;20221;-66
2022/01/16 05:56:34;;;;;;;66.63;23.67;;;-1.50;99.90;;;;;;4441545;32;20158;-67
2022/01/16 05:59:01;;;;;;;65.67;22.73;;;-1.50;99.90;;;;;;4441752;32;20209;-67
2022/01/16 06:01:28;;;;;;;67.83;23.03;;;-1.50;99.90;;;;;;4443038;32;20196;-67
2022/01/16 06:03:55;;;;;;;65.43;22.03;;;-1.50;99.90;;;;;;4441096;32;20198;-66
2022/01/16 06:06:22;;;;;;;57.07;21.77;;;-1.50;99.90;;;;;;4442496;32;20426;-67
2022/01/16 06:08:49;;;;;;;63.30;22.90;;;-1.60;99.90;;;;;;4441553;32;20205;-67
2022/01/16 06:11:16;;;;;;;62.47;22.27;;;-1.60;99.90;;;;;;4441064;32;20182;-67
2022/01/16 06:13:43;;;;;;;64.43;23.20;;;-1.60;99.90;;;;;;4441724;32;20194;-67
2022/01/16 06:16:11;;;;;;;63.17;22.07;;;-1.60;99.90;;;;;;4441387;32;20178;-67
2022/01/16 06:18:38;;;;;;;59.93;22.73;;;-1.60;99.90;;;;;;4441590;32;20178;-67
2022/01/16 06:21:05;;;;;;;69.07;22.97;;;-1.70;99.90;;;;;;4455677;32;20159;-67
2022/01/16 06:23:32;;;;;;;63.40;22.50;;;-1.70;99.90;;;;;;4455952;32;20552;-66
2022/01/16 06:25:59;;;;;;;69.63;23.00;;;-1.70;99.90;;;;;;4428494;32;20559;-67
2022/01/16 06:28:31;;;;;;;63.70;22.53;;;-1.70;99.90;;;;;;4440723;32;20500;-67
2022/01/16 06:31:02;;;;;;;66.17;22.87;;;-1.80;99.90;;;;;;4441170;32;20195;-67
2022/01/16 06:33:29;;;;;;;70.27;24.20;;;-1.80;99.90;;;;;;4440778;32;20592;-67
2022/01/16 06:35:57;;;;;;;60.23;22.47;;;-1.70;99.90;;;;;;4440967;32;20174;-67
2022/01/16 06:38:24;;;;;;;63.27;23.63;;;-1.70;99.90;;;;;;4455790;32;20551;-67
2022/01/16 06:40:51;;;;;;;64.30;23.20;;;-1.70;99.90;;;;;;4441528;32;20172;-66
2022/01/16 06:43:18;;;;;;;61.43;23.50;;;-1.80;99.90;;;;;;4441493;32;20379;-67
2022/01/16 06:45:45;;;;;;;60.30;22.80;;;-1.80;99.90;;;;;;4456016;32;20162;-66
2022/01/16 06:48:12;;;;;;;65.67;22.57;;;-1.90;99.90;;;;;;4455040;32;20198;-67
2022/01/16 06:50:39;;;;;;;69.10;22.90;;;-1.90;99.90;;;;;;4455252;32;20509;-67
2022/01/16 06:53:06;;;;;;;65.13;21.93;;;-1.90;99.90;;;;;;4454878;32;20394;-67
2022/01/16 06:55:33;;;;;;;59.33;21.17;;;-1.90;99.90;;;;;;4441480;32;20192;-67
2022/01/16 06:58:00;;;;;;;59.80;21.67;;;-1.90;99.90;;;;;;4441013;32;20180;-67
2022/01/16 07:00:27;;;;;;;56.77;21.27;;;-2.00;99.90;;;;;;4440555;32;20245;-67
2022/01/16 07:02:55;;;;;;;55.93;20.73;;;-2.00;99.90;;;;;;4440610;32;20604;-67
2022/01/16 07:05:22;;;;;;;55.23;20.40;;;-2.10;99.90;;;;;;4454606;32;20210;-67
2022/01/16 07:07:49;;;;;;;60.33;19.90;;;-2.00;99.90;;;;;;4441088;32;20255;-67
2022/01/16 07:10:16;;;;;;;56.87;20.00;;;-2.00;99.90;;;;;;4440779;32;20192;-67
2022/01/16 07:12:43;;;;;;;55.67;20.53;;;-2.00;99.90;;;;;;4454226;32;20430;-67
2022/01/16 07:15:10;;;;;;;45.80;18.67;;;-2.00;99.90;;;;;;4454109;32;20237;-67
2022/01/16 07:17:37;;;;;;;54.57;18.83;;;-2.00;99.90;;;;;;4454701;32;20476;-67
2022/01/16 07:20:08;;;;;;;50.90;18.63;;;-1.90;99.90;;;;;;4440566;32;20177;-67
2022/01/16 07:22:35;;;;;;;45.27;16.93;;;-2.00;99.90;;;;;;4454393;32;20148;-67
2022/01/16 07:25:03;;;;;;;45.90;17.00;;;-2.00;99.90;;;;;;4454660;32;20139;-67
2022/01/16 07:27:29;;;;;;;45.00;16.27;;;-1.90;99.90;;;;;;4454514;32;20201;-66
2022/01/16 07:29:56;;;;;;;45.87;16.43;;;-1.90;99.90;;;;;;4440128;32;20474;-67
2022/01/16 07:32:23;;;;;;;43.57;15.07;;;-1.80;99.90;;;;;;4455041;32;20161;-67
2022/01/16 07:34:51;;;;;;;44.50;15.43;;;-1.70;99.90;;;;;;4439487;32;20260;-67
2022/01/16 07:37:18;;;;;;;36.73;14.40;;;-1.70;99.90;;;;;;4440246;32;20589;-67
2022/01/16 07:39:45;;;;;;;42.93;14.67;;;-1.70;99.90;;;;;;4454421;32;20142;-67
2022/01/16 07:42:12;;;;;;;35.43;14.67;;;-1.60;99.90;;;;;;4439560;32;20246;-67
2022/01/16 07:44:39;;;;;;;39.17;14.17;;;-1.70;99.90;;;;;;4440754;32;20200;-67
2022/01/16 07:47:06;;;;;;;36.50;13.37;;;-1.60;99.90;;;;;;4426957;32;20396;-67
2022/01/16 07:49:34;;;;;;;38.13;13.93;;;-1.70;99.90;;;;;;4453477;32;20215;-67
2022/01/16 07:52:01;;;;;;;37.77;13.70;;;-1.70;99.90;;;;;;4439754;32;20171;-67
2022/01/16 07:54:28;;;;;;;36.67;13.13;;;-1.60;99.90;;;;;;4453711;32;20143;-67
2022/01/16 07:56:55;;;;;;;33.30;12.67;;;-1.60;99.90;;;;;;4454686;32;20142;-67
2022/01/16 07:59:22;;;;;;;34.73;13.47;;;-1.60;99.90;;;;;;4454105;32;20138;-67
2022/01/16 08:01:49;;;;;;;35.77;13.00;;;-1.60;99.90;;;;;;4439471;32;20201;-67
2022/01/16 08:04:16;;;;;;;33.93;13.10;;;-1.50;99.90;;;;;;4439654;32;20201;-67
2022/01/16 08:06:43;;;;;;;35.03;13.77;;;-1.50;99.90;;;;;;4439698;32;20524;-67
2022/01/16 08:09:10;;;;;;;39.60;13.80;;;-1.40;99.90;;;;;;4440140;32;20208;-67
2022/01/16 08:11:36;;;;;;;34.30;13.40;;;-1.40;99.90;;;;;;4453614;32;20142;-67
2022/01/16 08:14:03;;;;;;;35.73;14.13;;;-1.40;99.90;;;;;;4440133;32;20194;-67
2022/01/16 08:16:30;;;;;;;35.70;14.03;;;-1.30;99.90;;;;;;4439648;32;20214;-67
2022/01/16 08:18:58;;;;;;;34.47;12.77;;;-1.30;99.90;;;;;;4455273;32;20188;-67
2022/01/16 08:21:24;;;;;;;32.53;13.47;;;-1.20;99.90;;;;;;4441225;32;20196;-67
2022/01/16 08:23:51;;;;;;;34.90;13.43;;;-1.20;99.90;;;;;;4453882;32;20474;-68
2022/01/16 08:26:18;;;;;;;32.63;13.00;;;-1.20;99.90;;;;;;4426837;32;20170;-67
2022/01/16 08:28:45;;;;;;;32.87;13.70;;;-1.10;99.90;;;;;;4439349;32;20196;-67
2022/01/16 08:31:12;;;;;;;31.60;13.77;;;-1.00;99.90;;;;;;4439322;32;20175;-68
2022/01/16 08:33:39;;;;;;;38.33;14.43;;;-0.90;99.90;;;;;;4438948;32;20237;-68
2022/01/16 08:36:06;;;;;;;35.00;13.87;;;-0.90;99.90;;;;;;4455181;32;20142;-68
2022/01/16 08:38:33;;;;;;;40.00;14.13;;;-0.80;99.90;;;;;;4441721;32;20493;-68
2022/01/16 08:41:02;;;;;;;38.77;15.07;;;-0.70;99.90;;;;;;4442043;32;20364;-67
2022/01/16 08:43:30;;;;;;;36.23;14.87;;;-0.70;99.90;;;;;;4456313;32;20241;-68
2022/01/16 08:45:57;;;;;;;34.20;14.67;;;-0.70;99.90;;;;;;4442023;32;20218;-67
2022/01/16 08:48:25;;;;;;;34.50;14.07;;;-0.60;99.90;;;;;;4445347;32;20409;-67
2022/01/16 08:50:52;;;;;;;36.63;14.30;;;-0.50;99.90;;;;;;4456266;32;20166;-67
2022/01/16 08:53:19;;;;;;;37.70;14.13;;;-0.40;99.90;;;;;;4454844;32;20193;-67
2022/01/16 08:55:46;;;;;;;36.93;14.67;;;-0.30;99.90;;;;;;4456089;32;20432;-67
2022/01/16 08:58:12;;;;;;;41.77;15.23;;;-0.30;99.90;;;;;;4456306;32;20178;-68
2022/01/16 09:00:43;;;;;;;38.60;14.27;;;-0.30;99.90;;;;;;4455761;32;20177;-67
2022/01/16 09:03:10;;;;;;;36.93;15.07;;;-0.40;99.90;;;;;;4456210;32;20166;-67
2022/01/16 09:05:37;;;;;;;39.83;15.70;;;-0.40;99.90;;;;;;4454169;32;20174;-67
2022/01/16 09:08:04;;;;;;;38.90;15.17;;;-0.40;99.90;;;;;;4455401;32;20188;-67
2022/01/16 09:10:31;;;;;;;42.43;16.03;;;-0.20;99.90;;;;;;4455755;32;20189;-67
2022/01/16 09:12:58;;;;;;;41.63;15.53;;;-0.20;99.90;;;;;;4457490;32;20154;-68
2022/01/16 09:15:25;;;;;;;40.10;14.97;;;-0.10;99.90;;;;;;4456342;32;20265;-68
2022/01/16 09:17:51;;;;;;;39.83;15.27;;;-0.20;99.90;;;;;;4457529;32;20142;-67
2022/01/16 09:20:18;;;;;;;38.47;15.63;;;-0.20;99.90;;;;;;4455491;32;20198;-67
2022/01/16 09:22:48;;;;;;;39.50;15.60;;;-0.20;99.90;;;;;;4456100;32;20250;-66
2022/01/16 09:25:22;;;;;;;40.33;16.00;;;-0.20;99.90;;;;;;4456151;32;20474;-68
2022/01/16 09:27:50;;;;;;;39.97;15.40;;;-0.20;99.90;;;;;;4453953;32;20254;-67
2022/01/16 09:30:19;;;;;;;39.37;16.47;;;-0.20;99.90;;;;;;4454143;32;20193;-67
2022/01/16 09:32:46;;;;;;;42.70;16.67;;;-0.10;99.90;;;;;;4455503;32;20242;-68
2022/01/16 09:35:14;;;;;;;43.30;16.97;;;0.00;99.90;;;;;;4455729;32;20184;-67
2022/01/16 09:37:42;;;;;;;43.17;15.40;;;0.00;99.90;;;;;;4456325;32;20176;-67
2022/01/16 09:40:11;;;;;;;41.03;16.00;;;0.00;99.90;;;;;;4454583;32;20432;-68
2022/01/16 09:42:38;;;;;;;48.03;16.53;;;0.10;99.90;;;;;;4455870;32;20242;-66
2022/01/16 09:45:08;;;;;;;46.00;15.80;;;0.00;99.90;;;;;;4453253;32;20182;-67
2022/01/16 09:47:39;;;;;;;46.00;16.43;;;0.10;99.90;;;;;;4445879;32;20194;-67
2022/01/16 09:50:08;;;;;;;40.90;16.43;;;0.20;99.90;;;;;;4449035;32;20232;-68
2022/01/16 09:52:40;;;;;;;43.23;16.30;;;0.30;99.90;;;;;;4445036;32;20177;-67
2022/01/16 09:55:08;;;;;;;41.53;15.83;;;0.30;99.90;;;;;;4451855;32;20194;-66
2022/01/16 09:57:35;;;;;;;48.73;17.63;;;0.30;99.90;;;;;;4453341;32;20607;-66
2022/01/16 10:00:06;;;;;;;49.47;17.27;;;0.20;99.90;;;;;;4453799;32;20197;-67
2022/01/16 10:02:32;;;;;;;43.97;16.17;;;0.30;99.90;;;;;;4453615;32;20216;-67
2022/01/16 10:04:59;;;;;;;46.67;17.13;;;0.30;99.90;;;;;;4455098;32;20204;-67
2022/01/16 10:07:26;;;;;;;39.33;16.27;;;0.20;99.90;;;;;;4453805;32;20208;-67
2022/01/16 10:10:12;;;;;;;43.33;16.97;;;0.20;99.90;;;;;;4455035;32;20198;-67
2022/01/16 10:12:46;;;;;;;39.27;15.87;;;0.30;99.90;;;;;;4455206;32;20189;-67
2022/01/16 10:15:26;;;;;;;46.07;17.43;;;0.30;99.90;;;;;;4456184;32;20522;-67
2022/01/16 10:17:55;;;;;;;41.10;17.10;;;0.30;99.90;;;;;;4454976;32;20558;-68
2022/01/16 10:20:24;;;;;;;44.03;16.80;;;0.30;99.90;;;;;;4454768;32;20245;-67
2022/01/16 10:22:57;;;;;;;49.47;17.90;;;0.30;99.90;;;;;;4454122;32;20209;-67
2022/01/16 10:25:41;;;;;;;46.23;17.00;;;0.30;99.90;;;;;;4455049;32;20199;-67
2022/01/16 10:28:17;;;;;;;44.50;17.27;;;0.40;99.90;;;;;;4455474;32;20404;-67
2022/01/16 10:30:47;;;;;;;50.90;18.27;;;0.50;99.90;;;;;;4453257;32;20618;-65
2022/01/16 10:33:21;;;;;;;45.67;16.63;;;0.60;99.90;;;;;;4453911;32;20177;-67
2022/01/16 10:35:50;;;;;;;44.10;16.30;;;0.70;99.90;;;;;;4454319;32;20216;-68
2022/01/16 10:38:29;;;;;;;42.73;16.30;;;0.80;99.90;;;;;;4453375;32;20184;-67
2022/01/16 10:40:59;;;;;;;47.70;17.83;;;0.90;99.90;;;;;;4454844;32;20595;-67
2022/01/16 10:43:44;;;;;;;42.53;16.70;;;0.80;99.90;;;;;;4454325;32;20444;-68
2022/01/16 10:46:13;;;;;;;43.07;17.47;;;0.80;99.90;;;;;;4454967;32;20192;-66
2022/01/16 10:49:16;;;;;;;43.60;17.17;;;0.90;99.90;;;;;;4453845;32;20190;-66
2022/01/16 10:52:09;;;;;;;46.60;16.33;;;0.80;99.90;;;;;;4452991;32;20229;-67
2022/01/16 10:54:39;;;;;;;43.20;17.03;;;0.90;99.90;;;;;;4454707;32;20212;-67
2022/01/16 10:57:23;;;;;;;42.40;15.60;;;0.90;99.90;;;;;;4455089;32;20174;-67
2022/01/16 11:00:02;;;;;;;44.70;16.63;;;0.80;99.90;;;;;;4452890;32;20232;-67
2022/01/16 11:02:30;;;;;;;48.83;16.97;;;0.80;99.90;;;;;;4454683;32;20204;-67
2022/01/16 11:05:21;;;;;;;43.87;16.07;;;0.70;99.90;;;;;;4453086;32;20554;-66
2022/01/16 11:07:57;;;;;;;48.70;17.17;;;0.70;99.90;;;;;;4453425;32;20174;-67
2022/01/16 22:37:29;;;;;;;49.23;18.17;;;1.40;99.90;;;;;;4472448;31;20279;-65
2022/01/16 22:39:56;;;;;;;47.60;18.30;;;1.50;99.90;;;;;;4456186;32;20547;-66
2022/01/16 22:42:23;;;;;;;45.17;17.10;;;1.50;99.90;;;;;;4465075;32;20190;-66
2022/01/16 22:44:55;;;;;;;47.03;18.40;;;1.60;99.90;;;;;;4468428;32;20530;-67
2022/01/16 22:47:23;;;;;;;42.23;17.33;;;1.60;99.90;;;;;;4466107;32;20422;-65
2022/01/16 22:49:51;;;;;;;44.03;17.10;;;1.70;99.90;;;;;;4465473;32;20478;-66
2022/01/16 22:52:28;;;;;;;38.80;17.50;;;1.70;99.90;;;;;;4465414;32;20186;-66
2022/01/16 22:54:56;;;;;;;44.40;18.10;;;1.70;99.90;;;;;;4467456;32;20169;-66
2022/01/16 22:57:25;;;;;;;41.93;16.50;;;1.70;99.90;;;;;;4466820;32;20189;-66
2022/01/16 22:59:53;;;;;;;35.10;15.70;;;1.80;99.90;;;;;;4468880;32;20134;-66
2022/01/16 23:02:20;;;;;;;37.40;16.23;;;1.80;99.90;;;;;;4467395;32;20193;-65
2022/01/16 23:04:47;;;;;;;35.63;15.53;;;1.90;99.90;;;;;;4460305;32;20243;-65
2022/01/16 23:07:14;;;;;;;28.53;13.00;;;1.90;99.90;;;;;;4456535;32;20612;-65
2022/01/16 23:09:41;;;;;;;30.47;14.50;;;2.00;99.90;;;;;;4456423;32;20203;-65
2022/01/16 23:12:12;;;;;;;29.83;14.43;;;2.00;99.90;;;;;;4465816;32;20193;-65
2022/01/16 23:14:41;;;;;;;30.20;13.93;;;2.00;99.90;;;;;;4465669;32;20192;-65
2022/01/16 23:17:08;;;;;;;28.67;14.10;;;2.10;99.90;;;;;;4467550;32;20182;-65
2022/01/16 23:19:36;;;;;;;28.23;13.97;;;2.00;99.90;;;;;;4466497;32;20170;-66
2022/01/16 23:22:04;;;;;;;25.17;12.50;;;2.10;99.90;;;;;;4465443;32;20462;-65
2022/01/16 23:24:31;;;;;;;24.83;12.17;;;2.10;99.90;;;;;;4465448;32;20188;-66
2022/01/16 23:26:59;;;;;;;26.40;12.77;;;2.20;99.90;;;;;;4465638;32;20165;-65
2022/01/16 23:29:27;;;;;;;26.90;12.27;;;2.20;99.90;;;;;;4465510;32;20519;-66
2022/01/16 23:31:54;;;;;;;22.37;11.90;;;2.20;99.90;;;;;;4466739;32;20189;-65
2022/01/16 23:34:22;;;;;;;22.63;12.20;;;2.30;99.90;;;;;;4465577;32;20236;-65
2022/01/16 23:36:49;;;;;;;22.30;11.47;;;2.30;99.90;;;;;;4465064;32;20592;-65
2022/01/16 23:39:16;;;;;;;23.67;11.97;;;2.30;99.90;;;;;;4465470;32;20174;-65
2022/01/16 23:41:43;;;;;;;25.00;12.53;;;2.30;99.90;;;;;;4465967;32;20192;-65
2022/01/16 23:44:13;;;;;;;28.53;13.73;;;2.40;99.90;;;;;;4466355;32;20209;-65
2022/01/16 23:46:41;;;;;;;25.50;13.47;;;2.40;99.90;;;;;;4464727;32;20627;-65
2022/01/16 23:49:09;;;;;;;27.10;13.77;;;2.40;99.90;;;;;;4454914;32;20226;-65
2022/01/16 23:51:36;;;;;;;28.07;14.03;;;2.40;99.90;;;;;;4455189;32;20167;-65
2022/01/16 23:54:06;;;;;;;26.97;13.33;;;2.40;99.90;;;;;;4454541;32;20237;-65
2022/01/16 23:56:33;;;;;;;28.53;14.00;;;2.40;99.90;;;;;;4454618;32;20532;-65
2022/01/16 23:59:00;;;;;;;31.13;14.90;;;2.40;99.90;;;;;;4454960;32;20571;-65
